createdAt,value
2019-05-19T00:02:25.951Z,15.72
2019-05-19T00:07:21.406Z,15.73
2019-05-19T00:12:18.395Z,15.68
2019-05-19T00:17:13.893Z,15.51
2019-05-19T00:22:09.647Z,15.64
2019-05-19T00:27:05.673Z,15.51
2019-05-19T00:32:01.551Z,15.33
2019-05-19T00:36:57.194Z,15.40
2019-05-19T00:41:54.001Z,15.33
2019-05-19T00:46:49.656Z,15.43
2019-05-19T00:51:46.310Z,15.37
2019-05-19T00:56:41.964Z,15.36
2019-05-19T01:01:38.845Z,15.35
2019-05-19T01:06:34.615Z,15.33
2019-05-19T01:11:30.724Z,15.25
2019-05-19T01:16:27.228Z,15.18
2019-05-19T01:21:22.976Z,15.18
2019-05-19T01:26:18.446Z,15.10
2019-05-19T01:31:14.330Z,15.00
2019-05-19T01:36:11.729Z,15.09
2019-05-19T01:41:07.146Z,14.97
2019-05-19T01:46:03.137Z,14.97
2019-05-19T01:50:59.551Z,14.84
2019-05-19T01:55:55.237Z,14.70
2019-05-19T02:00:52.015Z,14.73
2019-05-19T02:05:47.437Z,14.73
2019-05-19T02:10:43.186Z,14.69
2019-05-19T02:15:40.243Z,14.79
2019-05-19T02:20:35.962Z,14.60
2019-05-19T02:25:31.926Z,14.60
2019-05-19T02:30:27.741Z,14.50
2019-05-19T02:35:23.337Z,14.29
2019-05-19T02:40:19.651Z,14.35
2019-05-19T02:45:15.401Z,14.33
2019-05-19T02:50:12.358Z,14.18
2019-05-19T02:55:08.071Z,14.29
2019-05-19T03:00:04.181Z,14.44
2019-05-19T03:05:00.162Z,14.30
2019-05-19T03:09:55.922Z,14.28
2019-05-19T03:14:51.794Z,14.18
2019-05-19T03:19:47.560Z,13.97
2019-05-19T03:24:44.213Z,13.95
2019-05-19T03:29:40.354Z,13.83
2019-05-19T03:34:36.081Z,13.83
2019-05-19T03:39:32.836Z,13.96
2019-05-19T03:44:28.606Z,13.78
2019-05-19T03:49:24.365Z,13.96
2019-05-19T03:54:20.141Z,13.96
2019-05-19T03:59:17.328Z,13.99
2019-05-19T04:04:12.913Z,14.11
2019-05-19T04:09:08.484Z,14.08
2019-05-19T04:14:04.737Z,14.04
2019-05-19T04:19:01.544Z,14.26
2019-05-19T04:23:58.905Z,14.17
2019-05-19T04:28:54.233Z,14.35
2019-05-19T04:33:51.270Z,14.43
2019-05-19T04:38:46.939Z,14.63
2019-05-19T04:43:43.093Z,14.60
2019-05-19T04:48:39.139Z,14.81
2019-05-19T04:53:35.240Z,14.97
2019-05-19T04:58:31.155Z,15.07
2019-05-19T05:03:28.435Z,15.33
2019-05-19T05:08:29.954Z,15.33
2019-05-19T05:13:24.459Z,15.51
2019-05-19T05:18:20.008Z,15.54
2019-05-19T05:23:15.981Z,15.62
2019-05-19T05:28:12.281Z,15.59
2019-05-19T05:33:08.808Z,15.70
2019-05-19T05:38:05.521Z,15.84
2019-05-19T05:43:01.446Z,16.16
2019-05-19T05:47:57.465Z,16.24
2019-05-19T05:52:53.450Z,16.08
2019-05-19T05:57:50.243Z,15.94
2019-05-19T06:02:45.747Z,16.17
2019-05-19T06:07:41.961Z,16.38
2019-05-19T06:12:38.921Z,16.31
2019-05-19T06:17:34.340Z,16.41
2019-05-19T06:22:30.424Z,16.57
2019-05-19T06:27:26.399Z,16.79
2019-05-19T06:32:22.512Z,16.91
2019-05-19T06:37:19.272Z,17.08
2019-05-19T06:42:14.770Z,17.29
2019-05-19T06:47:12.055Z,17.42
2019-05-19T06:52:07.732Z,17.57
2019-05-19T06:57:03.964Z,17.86
2019-05-19T07:02:00.142Z,18.07
2019-05-19T07:06:56.170Z,18.18
2019-05-19T07:11:53.269Z,18.31
2019-05-19T07:16:49.078Z,18.33
2019-05-19T07:21:44.910Z,18.29
2019-05-19T07:26:41.972Z,18.47
2019-05-19T07:31:38.098Z,18.59
2019-05-19T07:36:35.277Z,18.66
2019-05-19T07:41:31.010Z,18.84
2019-05-19T07:46:28.639Z,18.77
2019-05-19T07:51:24.304Z,18.75
2019-05-19T07:56:20.277Z,18.68
2019-05-19T08:01:16.404Z,18.89
2019-05-19T08:06:12.837Z,18.99
2019-05-19T08:11:09.635Z,19.31
2019-05-19T08:16:06.736Z,19.88
2019-05-19T08:21:04.410Z,20.51
2019-05-19T08:26:01.849Z,21.30
2019-05-19T08:30:57.672Z,21.45
2019-05-19T08:35:53.966Z,21.77
2019-05-19T08:40:51.099Z,21.61
2019-05-19T08:45:46.920Z,21.61
2019-05-19T08:50:45.184Z,21.24
2019-05-19T08:55:40.414Z,21.82
2019-05-19T09:00:38.420Z,21.96
2019-05-19T09:05:33.293Z,21.87
2019-05-19T09:10:30.976Z,22.53
2019-05-19T09:15:28.764Z,22.81
2019-05-19T09:20:25.280Z,22.55
2019-05-19T09:25:20.929Z,21.79
2019-05-19T09:30:17.018Z,22.43
2019-05-19T09:35:14.114Z,22.35
2019-05-19T09:40:10.025Z,22.91
2019-05-19T09:45:06.593Z,23.28
2019-05-19T09:50:03.571Z,23.69
2019-05-19T09:55:00.683Z,23.73
2019-05-19T09:59:56.738Z,24.20
2019-05-19T10:04:52.419Z,23.74
2019-05-19T10:09:47.722Z,23.61
2019-05-19T10:14:43.819Z,23.51
2019-05-19T10:19:38.358Z,22.78
2019-05-19T10:24:35.850Z,22.99
2019-05-19T10:29:32.829Z,23.62
2019-05-19T10:34:29.922Z,24.70
2019-05-19T10:39:27.372Z,25.22
2019-05-19T10:44:21.570Z,23.17
2019-05-19T10:49:16.898Z,23.09
2019-05-19T10:54:14.734Z,23.54
2019-05-19T10:59:10.360Z,23.54
2019-05-19T11:04:08.215Z,24.05
2019-05-19T11:09:03.106Z,23.62
2019-05-19T11:13:59.021Z,23.66
2019-05-19T11:18:56.874Z,23.86
2019-05-19T11:23:52.993Z,24.55
2019-05-19T11:28:50.400Z,24.47
2019-05-19T11:33:45.691Z,24.51
2019-05-19T11:38:40.804Z,24.43
2019-05-19T11:43:38.234Z,24.36
2019-05-19T11:48:36.109Z,24.11
2019-05-19T11:53:30.193Z,23.91
2019-05-19T11:58:25.149Z,23.55
2019-05-19T12:03:21.265Z,23.05
2019-05-19T12:08:17.991Z,23.34
2019-05-19T12:13:16.449Z,24.38
2019-05-19T12:18:13.933Z,25.38
2019-05-19T12:23:11.408Z,26.58
2019-05-19T12:28:07.485Z,26.28
2019-05-19T12:33:01.658Z,25.16
2019-05-19T12:37:56.481Z,24.78
2019-05-19T12:42:53.956Z,25.23
2019-05-19T12:47:50.242Z,25.36
2019-05-19T12:52:46.040Z,26.13
2019-05-19T12:57:42.502Z,26.41
2019-05-19T13:02:38.960Z,25.50
2019-05-19T13:07:33.523Z,25.17
2019-05-19T13:12:28.623Z,24.74
2019-05-19T13:17:23.783Z,24.06
2019-05-19T13:22:19.066Z,23.51
2019-05-19T13:27:14.726Z,23.32
2019-05-19T13:32:09.945Z,23.25
2019-05-19T13:37:05.670Z,23.27
2019-05-19T13:42:01.593Z,23.23
2019-05-19T13:46:58.181Z,23.17
2019-05-19T13:51:55.247Z,23.12
2019-05-19T13:56:51.010Z,23.17
2019-05-19T14:01:46.811Z,23.23
2019-05-19T14:06:44.344Z,23.13
2019-05-19T14:11:39.959Z,23.17
2019-05-19T14:16:37.197Z,22.91
2019-05-19T14:21:33.201Z,22.17
2019-05-19T14:26:28.060Z,19.85
2019-05-19T14:31:22.456Z,19.04
2019-05-19T14:36:17.547Z,18.70
2019-05-19T14:41:12.982Z,18.52
2019-05-19T14:46:08.695Z,18.53
2019-05-19T14:51:05.381Z,18.50
2019-05-19T14:56:00.745Z,18.41
2019-05-19T15:00:57.809Z,18.22
2019-05-19T15:05:53.492Z,18.03
2019-05-19T15:10:50.583Z,17.95
2019-05-19T15:15:46.241Z,17.97
2019-05-19T15:20:43.052Z,17.89
2019-05-19T15:25:39.166Z,18.00
2019-05-19T15:30:35.443Z,18.11
2019-05-19T15:35:31.472Z,18.22
2019-05-19T15:40:27.317Z,18.22
2019-05-19T15:45:24.109Z,18.15
2019-05-19T15:50:19.737Z,18.26
2019-05-19T15:55:15.615Z,18.43
2019-05-19T16:00:11.590Z,18.41
2019-05-19T16:05:08.425Z,18.40
2019-05-19T16:10:04.118Z,18.50
2019-05-19T16:15:00.953Z,18.53
2019-05-19T16:19:56.779Z,18.45
2019-05-19T16:24:52.723Z,18.26
2019-05-19T16:29:48.400Z,18.08
2019-05-19T16:34:45.311Z,18.03
2019-05-19T16:39:40.958Z,17.97
2019-05-19T16:44:37.178Z,18.11
2019-05-19T16:49:33.200Z,18.18
2019-05-19T16:54:29.920Z,18.26
2019-05-19T16:59:26.954Z,18.37
2019-05-19T17:04:22.592Z,18.50
2019-05-19T17:09:18.676Z,18.49
2019-05-19T17:14:14.717Z,18.47
2019-05-19T17:19:10.747Z,18.50
2019-05-19T17:24:06.560Z,18.65
2019-05-19T17:29:02.531Z,18.73
2019-05-19T17:33:58.936Z,18.83
2019-05-19T17:38:56.467Z,18.90
2019-05-19T17:43:52.115Z,18.99
2019-05-19T17:48:48.895Z,19.00
2019-05-19T17:53:45.379Z,18.96
2019-05-19T17:58:41.012Z,18.90
2019-05-19T18:03:37.894Z,18.75
2019-05-19T18:08:33.546Z,18.78
2019-05-19T18:13:29.537Z,18.83
2019-05-19T18:18:26.038Z,18.62
2019-05-19T18:23:23.876Z,18.60
2019-05-19T18:28:21.310Z,18.53
2019-05-19T18:33:18.249Z,18.43
2019-05-19T18:38:15.276Z,18.35
2019-05-19T18:43:11.644Z,18.26
2019-05-19T18:48:09.410Z,18.13
2019-05-19T18:53:05.936Z,18.15
2019-05-19T18:58:03.415Z,18.11
2019-05-19T19:03:00.653Z,17.98
2019-05-19T19:07:58.845Z,18.08
2019-05-19T19:12:55.898Z,18.05
2019-05-19T19:17:53.102Z,18.05
2019-05-19T19:22:50.095Z,18.03
2019-05-19T19:27:47.078Z,17.94
2019-05-19T19:32:43.744Z,17.89
2019-05-19T19:37:39.207Z,17.85
2019-05-19T19:42:36.439Z,17.87
2019-05-19T19:47:34.450Z,17.85
2019-05-19T19:52:32.250Z,17.82
2019-05-19T19:57:30.375Z,17.79
2019-05-19T20:02:28.242Z,17.71
2019-05-19T20:07:26.262Z,17.72
2019-05-19T20:12:22.829Z,17.72
2019-05-19T20:17:20.069Z,17.71
2019-05-19T20:22:17.700Z,17.82
2019-05-19T20:27:14.811Z,17.67
2019-05-19T20:32:11.750Z,17.68
2019-05-19T20:37:09.311Z,17.52
2019-05-19T20:42:05.758Z,17.64
2019-05-19T20:47:02.929Z,17.49
2019-05-19T20:52:00.240Z,17.41
2019-05-19T20:56:57.480Z,17.33
2019-05-19T21:01:54.756Z,17.33
2019-05-19T21:06:51.980Z,17.22
2019-05-19T21:11:49.399Z,17.08
2019-05-19T21:16:46.014Z,17.05
2019-05-19T21:21:44.239Z,16.99
2019-05-19T21:26:41.298Z,16.97
2019-05-19T21:31:37.270Z,16.91
2019-05-19T21:36:34.999Z,16.81
2019-05-19T21:41:32.328Z,16.78
2019-05-19T21:46:30.082Z,16.71
2019-05-19T21:51:27.227Z,16.69
2019-05-19T21:56:24.004Z,16.65
2019-05-19T22:01:23.136Z,16.61
2019-05-19T22:06:20.255Z,16.60
2019-05-19T22:11:17.157Z,16.64
2019-05-19T22:16:14.510Z,16.60
2019-05-19T22:21:12.185Z,16.46
2019-05-19T22:26:09.102Z,16.47
2019-05-19T22:31:06.925Z,16.21
2019-05-19T22:36:04.280Z,16.02
2019-05-19T22:41:02.218Z,16.02
2019-05-19T22:45:59.728Z,16.01
2019-05-19T22:50:57.293Z,16.13
2019-05-19T22:55:54.747Z,16.15
2019-05-19T23:00:52.076Z,16.10
2019-05-19T23:05:48.562Z,16.13
2019-05-19T23:10:45.360Z,16.17
2019-05-19T23:15:42.756Z,16.10
2019-05-19T23:20:39.910Z,16.12
2019-05-19T23:25:37.081Z,15.94
2019-05-19T23:30:34.220Z,15.95
2019-05-19T23:35:32.164Z,15.98
2019-05-19T23:40:28.885Z,15.92
2019-05-19T23:45:27.292Z,15.88
2019-05-19T23:50:23.739Z,15.97
2019-05-19T23:55:20.970Z,15.75
